createdAt,value
2019-01-26T00:20:11.218Z,991.18
2019-01-26T00:48:47.090Z,990.56
2019-01-26T01:17:26.489Z,990.04
2019-01-26T01:46:05.834Z,990
2019-01-26T02:14:46.198Z,989.38
2019-01-26T02:43:20.474Z,989.22
2019-01-26T03:11:59.358Z,989.11
2019-01-26T03:40:37.402Z,989
2019-01-26T04:09:14.424Z,988.83
2019-01-26T04:37:52.606Z,988.77
2019-01-26T05:06:32.021Z,988.89
2019-01-26T05:35:05.599Z,988.79
2019-01-26T06:03:41.409Z,988.85
2019-01-26T06:32:20.756Z,988.77
2019-01-26T07:00:54.426Z,988.71
2019-01-26T07:29:33.031Z,988.54
2019-01-26T07:58:06.460Z,988.2
2019-01-26T08:26:45.414Z,987.96
2019-01-26T08:55:25.237Z,987.49
2019-01-26T09:24:05.063Z,987.28
2019-01-26T09:52:48.065Z,987.13
2019-01-26T10:21:26.524Z,987.14
2019-01-26T10:50:06.890Z,986.94
2019-01-26T11:18:48.879Z,986.84
2019-01-26T11:47:31.951Z,986.54
2019-01-26T12:16:12.575Z,986.38
2019-01-26T12:44:48.728Z,986.37
2019-01-26T13:13:30.846Z,986.27
2019-01-26T13:42:03.172Z,986.24
2019-01-26T14:10:39.785Z,986.32
2019-01-26T14:39:17.561Z,986.46
2019-01-26T15:07:55.518Z,986.3
2019-01-26T15:36:33.790Z,986.21
2019-01-26T16:05:13.679Z,986.06
2019-01-26T16:33:52.898Z,986.14
2019-01-26T17:02:25.590Z,985.89
2019-01-26T17:31:06.863Z,985.83
2019-01-26T17:59:45.584Z,985.58
2019-01-26T18:28:24.623Z,985.49
2019-01-26T18:56:54.679Z,985.27
2019-01-26T19:25:32.709Z,985.04
2019-01-26T19:54:09.696Z,984.91
2019-01-26T20:22:49.854Z,984.47
2019-01-26T20:51:25.708Z,984.05
2019-01-26T21:20:04.772Z,983.74
2019-01-26T21:48:39.302Z,983.54
2019-01-26T22:17:11.631Z,983.17
2019-01-26T22:45:47.593Z,982.9
2019-01-26T23:14:22.684Z,982.52
2019-01-26T23:42:59.720Z,981.96
